createdAt,value
2023-12-13T00:01:47.670Z,30.55
2023-12-13T00:04:14.652Z,29.70
2023-12-13T00:06:41.203Z,38.28
2023-12-13T00:11:37.364Z,28.85
2023-12-13T00:14:05.946Z,28.60
2023-12-13T00:16:32.482Z,26.77
2023-12-13T00:18:59.029Z,40.63
2023-12-13T00:23:52.117Z,38.88
2023-12-13T00:26:19.712Z,36.53
2023-12-13T00:28:47.014Z,38.45
2023-12-13T00:31:13.975Z,43.42
2023-12-13T00:33:40.552Z,38.88
2023-12-13T00:36:08.079Z,45.03
2023-12-13T00:38:34.578Z,37.63
2023-12-13T00:41:01.414Z,38.60
2023-12-13T00:43:28.051Z,45.83
2023-12-13T00:48:21.460Z,41.08
2023-12-13T00:53:14.628Z,44.08
2023-12-13T00:58:07.720Z,33.80
2023-12-13T01:00:34.302Z,45.05
2023-12-13T01:05:27.593Z,38.50
2023-12-13T01:07:54.246Z,44.50
2023-12-13T01:12:48.043Z,39.35
2023-12-13T01:15:14.605Z,40.13
2023-12-13T01:20:10.515Z,34.78
2023-12-13T01:22:37.256Z,53.60
2023-12-13T01:27:31.665Z,42.83
2023-12-13T01:29:58.405Z,41.42
2023-12-13T01:34:51.453Z,39.35
2023-12-13T01:39:44.552Z,45.85
2023-12-13T01:42:11.035Z,39.88
2023-12-13T01:44:39.361Z,46.67
2023-12-13T01:47:06.079Z,44.30
2023-12-13T01:51:59.697Z,44.30
2023-12-13T01:54:26.582Z,43.22
2023-12-13T01:56:53.450Z,46.95
2023-12-13T01:59:20.144Z,51.50
2023-12-13T02:04:15.169Z,44.53
2023-12-13T02:06:43.222Z,49.83
2023-12-13T02:09:10.194Z,48.35
2023-12-13T02:11:37.473Z,43.97
2023-12-13T02:14:05.656Z,43.95
2023-12-13T02:16:33.881Z,40.33
2023-12-13T02:19:00.606Z,41.22
2023-12-13T02:23:56.890Z,40.85
2023-12-13T02:26:23.736Z,46.60
2023-12-13T02:28:50.578Z,44.55
2023-12-13T02:46:25.149Z,42.38
2023-12-13T02:48:51.796Z,41.67
2023-12-13T02:53:45.792Z,47.33
2023-12-13T02:56:12.325Z,44.22
2023-12-13T02:58:38.911Z,47.78
2023-12-13T03:03:32.011Z,47.83
2023-12-13T03:05:58.496Z,47.95
2023-12-13T03:08:24.968Z,40.90
2023-12-13T03:10:51.510Z,50.85
2023-12-13T03:15:44.549Z,42.90
2023-12-13T03:18:11.277Z,44.30
2023-12-13T03:23:08.414Z,47.03
2023-12-13T03:25:35.295Z,47.63
2023-12-13T03:28:01.906Z,48.20
2023-12-13T03:30:28.478Z,41.38
2023-12-13T03:35:21.533Z,51.47
2023-12-13T03:37:49.204Z,48.90
2023-12-13T03:40:16.180Z,50.05
2023-12-13T03:42:42.682Z,47.63
2023-12-13T03:45:09.589Z,48.72
2023-12-13T03:47:36.556Z,53.22
2023-12-13T03:50:03.523Z,51.70
2023-12-13T03:52:30.120Z,49.90
2023-12-13T03:54:57.048Z,49.45
2023-12-13T03:57:23.559Z,48.38
2023-12-13T03:59:50.061Z,51.28
2023-12-13T04:02:16.602Z,50.95
2023-12-13T04:04:43.332Z,53.45
2023-12-13T04:07:10.583Z,46.60
2023-12-13T04:09:37.062Z,47.55
2023-12-13T04:12:04.070Z,48.58
2023-12-13T04:14:30.642Z,48.67
2023-12-13T04:16:57.233Z,44.63
2023-12-13T04:21:50.360Z,47.08
2023-12-13T04:24:16.967Z,40.00
2023-12-13T04:29:10.073Z,40.63
2023-12-13T04:31:36.582Z,49.47
2023-12-13T04:34:03.226Z,48.72
2023-12-13T04:38:56.207Z,45.22
2023-12-13T04:41:22.731Z,40.80
2023-12-13T04:43:49.594Z,48.90
2023-12-13T04:46:16.197Z,42.80
2023-12-13T04:48:42.825Z,42.80
2023-12-13T04:51:09.416Z,48.08
2023-12-13T04:53:38.048Z,43.35
2023-12-13T04:56:04.856Z,43.97
2023-12-13T04:58:31.377Z,38.78
2023-12-13T05:00:58.409Z,48.08
2023-12-13T05:05:51.575Z,44.75
2023-12-13T05:08:18.100Z,48.22
2023-12-13T05:10:45.043Z,45.05
2023-12-13T05:13:11.774Z,43.58
2023-12-13T05:18:05.634Z,42.58
2023-12-13T05:20:32.367Z,53.22
2023-12-13T05:25:25.481Z,46.03
2023-12-13T05:27:52.168Z,47.45
2023-12-13T05:32:46.250Z,45.70
2023-12-13T05:37:39.305Z,50.65
2023-12-13T05:40:06.733Z,52.78
2023-12-13T05:42:34.663Z,55.33
2023-12-13T05:45:01.264Z,57.38
2023-12-13T05:47:30.543Z,47.15
2023-12-13T05:49:58.281Z,54.13
2023-12-13T05:52:25.103Z,54.90
2023-12-13T05:54:51.618Z,66.40
2023-12-13T05:57:18.125Z,54.15
2023-12-13T05:59:44.665Z,54.83
2023-12-13T06:02:11.203Z,50.78
2023-12-13T06:04:37.931Z,52.92
2023-12-13T06:07:04.481Z,54.72
2023-12-13T06:09:30.995Z,50.15
2023-12-13T06:11:57.539Z,59.72
2023-12-13T06:14:24.048Z,45.08
2023-12-13T06:16:50.627Z,46.92
2023-12-13T06:21:43.702Z,57.60
2023-12-13T06:38:24.147Z,50.75
2023-12-13T06:41:17.852Z,48.95
2023-12-13T06:43:53.828Z,44.22
2023-12-13T06:46:23.588Z,43.55
2023-12-13T06:49:11.420Z,51.00
2023-12-13T06:54:04.856Z,50.22
2023-12-13T06:56:37.043Z,48.38
2023-12-13T06:59:03.775Z,52.55
2023-12-13T07:03:57.164Z,48.92
2023-12-13T07:08:50.211Z,47.15
2023-12-13T07:19:14.678Z,42.85
2023-12-13T07:21:41.461Z,44.30
2023-12-13T07:26:34.588Z,40.55
2023-12-13T07:29:02.405Z,46.83
2023-12-13T07:31:43.186Z,48.60
2023-12-13T07:34:10.316Z,46.42
2023-12-13T07:36:37.815Z,44.35
2023-12-13T07:39:05.016Z,46.72
2023-12-13T08:36:16.904Z,57.25
2023-12-13T08:38:43.584Z,64.82
2023-12-13T08:41:13.010Z,61.88
2023-12-13T08:43:40.148Z,64.03
2023-12-13T08:47:22.105Z,62.88
2023-12-13T08:49:48.816Z,60.65
2023-12-13T08:58:08.296Z,64.82
2023-12-13T09:05:13.843Z,69.32
2023-12-13T09:07:48.925Z,62.22
2023-12-13T09:10:43.899Z,60.13
2023-12-13T09:13:19.717Z,64.30
2023-12-13T09:15:54.866Z,66.30
2023-12-13T09:19:32.997Z,63.00
2023-12-13T09:22:28.540Z,64.68
2023-12-13T09:33:38.459Z,55.85
2023-12-13T09:39:42.972Z,60.03
2023-12-13T09:49:37.749Z,62.35
2023-12-13T09:56:23.576Z,62.45
2023-12-13T09:59:32.692Z,64.03
2023-12-13T10:02:00.167Z,57.35
2023-12-13T10:05:19.059Z,59.60
2023-12-13T10:18:05.147Z,58.35
2023-12-13T10:20:52.614Z,53.80
2023-12-13T10:23:19.768Z,52.22
2023-12-13T10:25:49.383Z,58.33
2023-12-13T10:28:16.501Z,48.85
2023-12-13T10:30:43.503Z,52.47
2023-12-13T10:41:49.175Z,52.40
2023-12-13T10:48:23.043Z,51.33
2023-12-13T10:50:51.565Z,52.25
2023-12-13T10:53:24.332Z,47.60
2023-12-13T10:59:07.942Z,45.92
2023-12-13T11:01:35.775Z,45.58
2023-12-13T11:04:10.225Z,45.72
2023-12-13T11:06:48.596Z,43.85
2023-12-13T11:09:19.513Z,42.67
2023-12-13T11:12:10.781Z,45.67
2023-12-13T11:14:42.436Z,44.53
2023-12-13T11:17:09.254Z,42.67
2023-12-13T11:19:42.684Z,53.58
2023-12-13T11:22:12.988Z,45.35
2023-12-13T11:28:49.834Z,48.03
2023-12-13T11:31:23.744Z,39.72
2023-12-13T11:34:32.963Z,48.45
2023-12-13T11:41:18.651Z,45.55
2023-12-13T11:43:48.830Z,45.58
2023-12-13T11:46:38.049Z,46.15
2023-12-13T11:49:34.231Z,47.97
2023-12-13T11:59:22.932Z,48.05
2023-12-13T12:05:32.079Z,42.90
2023-12-13T12:08:10.281Z,44.03
2023-12-13T12:10:36.913Z,47.88
2023-12-13T12:13:04.851Z,44.05
2023-12-13T12:15:32.672Z,49.83
2023-12-13T12:18:31.645Z,49.45
2023-12-13T12:25:34.348Z,45.95
2023-12-13T12:28:01.264Z,48.60
2023-12-13T12:30:28.344Z,45.30
2023-12-13T12:32:57.040Z,46.35
2023-12-13T12:35:23.649Z,41.83
2023-12-13T12:40:17.520Z,56.28
2023-12-13T12:42:46.563Z,50.17
2023-12-13T12:45:13.340Z,52.65
2023-12-13T12:50:07.830Z,52.75
2023-12-13T12:52:34.539Z,48.05
2023-12-13T12:57:27.678Z,51.03
2023-12-13T13:02:20.934Z,51.85
2023-12-13T13:07:15.549Z,48.22
2023-12-13T13:09:42.050Z,51.67
2023-12-13T13:12:08.551Z,46.33
2023-12-13T13:14:35.144Z,56.58
2023-12-13T13:17:02.050Z,46.08
2023-12-13T13:19:28.643Z,47.28
2023-12-13T13:21:57.758Z,42.00
2023-12-13T13:24:27.130Z,55.83
2023-12-13T13:26:53.627Z,53.03
2023-12-13T13:29:20.160Z,50.78
2023-12-13T13:31:46.769Z,51.30
2023-12-13T13:36:39.718Z,56.05
2023-12-13T13:39:06.465Z,53.55
2023-12-13T13:41:32.979Z,49.63
2023-12-13T13:44:00.538Z,52.45
2023-12-13T13:46:27.146Z,54.65
2023-12-13T13:48:55.552Z,57.17
2023-12-13T13:51:22.244Z,51.45
2023-12-13T14:00:58.388Z,49.78
2023-12-13T14:03:41.397Z,48.30
2023-12-13T14:06:08.463Z,56.25
2023-12-13T14:08:40.011Z,49.22
2023-12-13T14:11:14.670Z,52.08
2023-12-13T14:13:41.413Z,53.05
2023-12-13T14:16:08.375Z,52.42
2023-12-13T14:18:35.349Z,53.92
2023-12-13T14:28:39.248Z,57.20
2023-12-13T14:31:06.461Z,59.80
2023-12-13T14:33:33.493Z,61.42
2023-12-13T14:36:00.640Z,54.88
2023-12-13T14:38:35.014Z,57.05
2023-12-13T14:41:02.098Z,58.40
2023-12-13T14:43:29.104Z,63.88
2023-12-13T14:50:59.040Z,65.55
2023-12-13T14:53:29.586Z,56.17
2023-12-13T14:56:24.875Z,56.08
2023-12-13T14:59:04.463Z,56.95
2023-12-13T15:01:56.436Z,65.30
2023-12-13T15:04:24.755Z,55.05
2023-12-13T15:06:51.681Z,54.90
2023-12-13T15:09:47.703Z,56.92
2023-12-13T15:12:35.024Z,57.30
2023-12-13T15:17:54.354Z,49.47
2023-12-13T15:18:21.323Z,57.17
2023-12-13T15:20:50.334Z,59.70
2023-12-13T15:27:07.720Z,61.58
2023-12-13T15:30:35.120Z,60.97
2023-12-13T15:33:17.788Z,54.85
2023-12-13T15:35:58.762Z,55.47
2023-12-13T15:42:10.248Z,60.53
2023-12-13T15:44:38.442Z,71.18
2023-12-13T15:47:12.113Z,78.90
2023-12-13T15:49:38.742Z,73.93
2023-12-13T15:54:46.602Z,61.33
2023-12-13T15:57:22.738Z,69.68
2023-12-13T15:59:49.397Z,72.85
2023-12-13T16:05:31.801Z,61.35
2023-12-13T16:08:24.763Z,73.22
2023-12-13T16:11:14.811Z,69.45
2023-12-13T16:14:27.906Z,68.05
2023-12-13T16:16:58.042Z,67.82
2023-12-13T16:19:25.036Z,68.30
2023-12-13T16:21:59.530Z,74.60
2023-12-13T16:24:29.049Z,66.85
2023-12-13T16:27:10.321Z,68.05
2023-12-13T16:30:02.348Z,69.82
2023-12-13T16:32:43.778Z,63.15
2023-12-13T16:35:19.489Z,68.05
2023-12-13T16:37:46.170Z,64.30
2023-12-13T16:42:40.247Z,66.00
2023-12-13T16:45:07.822Z,65.32
2023-12-13T16:47:35.089Z,63.10
2023-12-13T16:50:01.736Z,55.15
2023-12-13T16:55:06.209Z,56.25
2023-12-13T16:57:32.741Z,54.00
2023-12-13T17:02:42.817Z,48.65
2023-12-13T17:05:12.270Z,55.80
2023-12-13T17:07:38.948Z,48.22
2023-12-13T17:10:32.778Z,45.25
2023-12-13T17:12:59.376Z,41.38
2023-12-13T17:15:26.892Z,44.72
2023-12-13T17:17:53.733Z,43.47
2023-12-13T17:20:20.698Z,36.22
2023-12-13T17:22:47.554Z,39.15
2023-12-13T17:25:17.383Z,40.20
2023-12-13T17:27:44.227Z,39.75
2023-12-13T17:30:11.325Z,41.15
2023-12-13T17:32:38.182Z,42.25
2023-12-13T17:35:08.748Z,43.53
2023-12-13T17:37:35.483Z,46.53
2023-12-13T17:42:29.834Z,39.75
2023-12-13T17:44:56.993Z,46.25
2023-12-13T17:47:25.460Z,48.17
2023-12-13T17:49:55.520Z,44.72
2023-12-13T17:52:22.324Z,44.22
2023-12-13T17:59:35.443Z,37.53
2023-12-13T18:02:02.251Z,36.58
2023-12-13T18:04:34.673Z,48.30
2023-12-13T18:07:01.575Z,39.72
2023-12-13T18:11:54.508Z,47.78
2023-12-13T18:14:22.212Z,45.53
2023-12-13T18:16:48.815Z,45.38
2023-12-13T18:21:42.067Z,42.13
2023-12-13T18:26:35.075Z,37.03
2023-12-13T18:29:04.040Z,41.03
2023-12-13T18:31:30.805Z,35.20
2023-12-13T18:36:23.887Z,34.33
2023-12-13T18:38:50.400Z,33.50
2023-12-13T18:41:16.901Z,35.13
2023-12-13T18:43:43.405Z,39.25
2023-12-13T18:46:09.893Z,33.40
2023-12-13T18:48:36.592Z,31.83
2023-12-13T18:53:31.071Z,30.58
2023-12-13T18:55:58.826Z,27.48
2023-12-13T19:00:56.355Z,30.05
2023-12-13T19:03:23.335Z,30.92
2023-12-13T19:05:49.879Z,26.67
2023-12-13T19:08:16.435Z,27.10
2023-12-13T19:10:43.035Z,22.15
2023-12-13T19:13:09.559Z,27.90
2023-12-13T19:15:36.120Z,26.08
2023-12-13T19:18:03.128Z,22.88
2023-12-13T19:20:29.686Z,24.95
2023-12-13T19:22:56.289Z,27.27
2023-12-13T19:25:22.973Z,25.75
2023-12-13T19:30:20.879Z,34.25
2023-12-13T19:32:47.494Z,23.95
2023-12-13T19:37:43.533Z,19.10
2023-12-13T19:40:15.711Z,20.25
2023-12-13T19:42:45.304Z,21.23
2023-12-13T19:45:12.033Z,19.25
2023-12-13T19:50:06.083Z,20.38
2023-12-13T19:52:32.641Z,20.73
2023-12-13T19:55:04.234Z,19.63
2023-12-13T19:57:33.597Z,22.08
2023-12-13T20:00:00.312Z,21.48
2023-12-13T20:02:26.932Z,21.42
2023-12-13T20:07:19.907Z,20.95
2023-12-13T20:09:46.455Z,21.67
2023-12-13T20:12:12.957Z,23.67
2023-12-13T20:14:43.348Z,28.17
2023-12-13T20:17:09.986Z,22.65
2023-12-13T20:19:36.813Z,26.70
2023-12-13T20:22:04.259Z,28.48
2023-12-13T20:24:30.797Z,31.23
2023-12-13T20:27:00.955Z,26.38
2023-12-13T20:29:28.155Z,31.55
2023-12-13T20:31:54.923Z,26.70
2023-12-13T20:34:21.623Z,29.80
2023-12-13T20:39:14.722Z,30.42
2023-12-13T20:41:41.210Z,33.00
2023-12-13T20:44:07.908Z,32.40
2023-12-13T20:46:34.655Z,34.97
2023-12-13T20:51:27.683Z,33.47
2023-12-13T20:53:54.202Z,33.28
2023-12-13T20:56:21.864Z,32.88
2023-12-13T20:58:49.738Z,32.38
2023-12-13T21:01:16.582Z,31.58
2023-12-13T21:03:43.362Z,27.95
2023-12-13T21:08:37.441Z,31.85
2023-12-13T21:11:04.275Z,37.03
2023-12-13T21:13:30.919Z,33.10
2023-12-13T21:18:23.931Z,33.40
2023-12-13T21:23:17.149Z,36.20
2023-12-13T21:28:10.336Z,36.55
2023-12-13T21:33:04.101Z,38.10
2023-12-13T21:35:30.651Z,30.85
2023-12-13T21:37:57.268Z,32.28
2023-12-13T21:42:50.370Z,33.38
2023-12-13T21:45:16.930Z,30.08
2023-12-13T21:50:10.672Z,35.35
2023-12-13T21:52:38.777Z,28.85
2023-12-13T21:55:29.087Z,32.50
2023-12-13T22:01:43.833Z,26.00
2023-12-13T22:12:30.546Z,30.63
2023-12-13T22:15:34.679Z,33.42
2023-12-13T22:21:00.005Z,29.00
2023-12-13T22:23:57.564Z,30.70
2023-12-13T22:26:47.331Z,31.10
2023-12-13T22:33:09.026Z,33.78
2023-12-13T22:36:03.413Z,27.95
2023-12-13T22:38:54.483Z,33.03
2023-12-13T22:41:42.489Z,36.08
2023-12-13T22:44:22.344Z,28.33
2023-12-13T22:47:18.395Z,29.45
2023-12-13T22:50:00.412Z,27.35
2023-12-13T22:52:46.771Z,36.30
2023-12-13T22:55:49.545Z,26.90
2023-12-13T22:58:16.066Z,31.35
2023-12-13T23:00:42.553Z,29.42
2023-12-13T23:03:09.058Z,29.45
2023-12-13T23:05:36.414Z,34.33
2023-12-13T23:08:03.406Z,34.85
2023-12-13T23:10:30.072Z,38.92
2023-12-13T23:15:23.776Z,30.88
2023-12-13T23:17:50.405Z,37.97
2023-12-13T23:20:17.119Z,48.03
2023-12-13T23:25:10.329Z,32.63
2023-12-13T23:30:04.169Z,30.52
2023-12-13T23:32:30.850Z,31.58
2023-12-13T23:34:57.400Z,34.78
2023-12-13T23:37:23.941Z,35.17
2023-12-13T23:39:50.448Z,33.22
2023-12-13T23:42:16.951Z,30.73
2023-12-13T23:44:43.425Z,30.33
2023-12-13T23:47:10.622Z,38.42
2023-12-13T23:49:37.288Z,40.28
2023-12-13T23:54:30.234Z,33.95
2023-12-13T23:56:56.837Z,32.90
